createdAt,value
2024-03-16T00:00:48.929Z,96.82
2024-03-16T00:03:15.738Z,97.10
2024-03-16T00:05:43.204Z,97.72
2024-03-16T00:08:09.972Z,98.09
2024-03-16T00:10:36.934Z,97.96
2024-03-16T00:13:04.030Z,98.14
2024-03-16T00:15:30.874Z,98.23
2024-03-16T00:17:57.704Z,98.08
2024-03-16T00:20:27.007Z,97.99
2024-03-16T00:22:53.823Z,98.33
2024-03-16T00:25:20.796Z,98.22
2024-03-16T00:27:47.616Z,99.10
2024-03-16T00:30:15.412Z,98.65
2024-03-16T00:32:42.296Z,98.67
2024-03-16T00:35:09.222Z,98.21
2024-03-16T00:37:36.066Z,98.10
2024-03-16T00:40:03.102Z,97.88
2024-03-16T00:42:30.010Z,97.78
2024-03-16T00:44:56.756Z,97.77
2024-03-16T00:47:23.519Z,97.76
2024-03-16T00:49:50.421Z,97.67
2024-03-16T00:52:17.218Z,98.85
2024-03-16T00:54:44.185Z,98.42
2024-03-16T00:57:11.069Z,98.27
2024-03-16T00:59:37.896Z,98.17
2024-03-16T01:02:05.336Z,96.91
2024-03-16T01:04:34.983Z,97.19
2024-03-16T01:07:01.984Z,96.73
2024-03-16T01:09:28.916Z,95.86
2024-03-16T01:11:55.931Z,96.25
2024-03-16T01:14:22.700Z,96.63
2024-03-16T01:16:49.601Z,96.89
2024-03-16T01:19:16.547Z,96.47
2024-03-16T01:21:43.762Z,96.25
2024-03-16T01:24:10.769Z,96.02
2024-03-16T01:26:37.589Z,96.81
2024-03-16T01:29:05.401Z,96.40
2024-03-16T01:31:32.265Z,96.53
2024-03-16T01:33:59.292Z,95.87
2024-03-16T01:36:26.327Z,95.74
2024-03-16T01:38:53.273Z,95.96
2024-03-16T01:41:23.367Z,95.85
2024-03-16T01:43:50.180Z,94.54
2024-03-16T01:46:17.559Z,94.87
2024-03-16T01:48:44.496Z,94.43
2024-03-16T01:51:11.430Z,94.53
2024-03-16T01:53:39.409Z,94.51
2024-03-16T01:56:06.525Z,94.63
2024-03-16T01:58:42.492Z,94.16
2024-03-16T02:01:09.449Z,92.61
2024-03-16T02:03:36.430Z,92.22
2024-03-16T02:06:03.358Z,91.44
2024-03-16T02:08:30.607Z,91.91
2024-03-16T02:10:57.462Z,92.91
2024-03-16T02:13:24.450Z,93.30
2024-03-16T02:15:51.332Z,92.33
2024-03-16T02:18:18.147Z,92.29
2024-03-16T02:20:44.912Z,93.22
2024-03-16T02:23:11.699Z,93.24
2024-03-16T02:25:38.493Z,93.95
2024-03-16T02:28:05.962Z,94.20
2024-03-16T02:30:32.907Z,95.21
2024-03-16T02:32:59.958Z,94.94
2024-03-16T02:35:26.979Z,94.95
2024-03-16T02:37:53.772Z,93.60
2024-03-16T02:40:20.605Z,93.64
2024-03-16T02:42:47.684Z,93.38
2024-03-16T02:45:14.507Z,94.17
2024-03-16T02:47:41.309Z,93.99
2024-03-16T02:50:11.277Z,93.75
2024-03-16T02:52:39.203Z,93.90
2024-03-16T02:55:06.710Z,94.22
2024-03-16T02:57:33.600Z,94.44
2024-03-16T03:00:00.594Z,94.58
2024-03-16T03:02:29.193Z,94.68
2024-03-16T03:04:56.007Z,94.67
2024-03-16T03:07:22.818Z,94.25
2024-03-16T03:09:49.643Z,93.51
2024-03-16T03:12:16.676Z,92.80
2024-03-16T03:14:43.430Z,92.82
2024-03-16T03:17:10.266Z,93.29
2024-03-16T03:19:37.121Z,92.85
2024-03-16T03:22:03.916Z,92.39
2024-03-16T03:24:30.742Z,93.23
2024-03-16T03:26:57.530Z,93.59
2024-03-16T03:29:24.378Z,92.74
2024-03-16T03:31:51.088Z,92.83
2024-03-16T03:34:17.946Z,94.06
2024-03-16T03:36:45.804Z,93.12
2024-03-16T03:39:15.535Z,91.98
2024-03-16T03:41:42.498Z,91.11
2024-03-16T03:44:22.100Z,91.19
2024-03-16T03:46:52.903Z,90.37
2024-03-16T03:49:40.840Z,90.18
2024-03-16T03:52:07.737Z,89.23
2024-03-16T03:54:35.905Z,89.89
2024-03-16T03:57:03.736Z,89.16
2024-03-16T03:59:30.692Z,89.65
2024-03-16T04:01:57.640Z,88.88
2024-03-16T04:04:24.464Z,89.15
2024-03-16T04:06:51.281Z,89.05
2024-03-16T04:09:18.194Z,88.69
2024-03-16T04:11:44.937Z,88.54
2024-03-16T04:14:11.743Z,88.65
2024-03-16T04:16:38.551Z,89.06
2024-03-16T04:19:05.323Z,89.20
2024-03-16T04:21:32.274Z,89.22
2024-03-16T04:23:59.180Z,88.74
2024-03-16T04:26:26.419Z,89.21
2024-03-16T04:28:53.531Z,89.12
2024-03-16T04:31:20.348Z,88.38
2024-03-16T04:33:47.213Z,88.12
2024-03-16T04:36:15.044Z,89.09
2024-03-16T04:38:42.011Z,89.41
2024-03-16T04:41:08.951Z,88.43
2024-03-16T04:43:35.935Z,89.53
2024-03-16T04:46:02.846Z,88.85
2024-03-16T04:48:29.769Z,88.46
2024-03-16T04:50:57.269Z,88.32
2024-03-16T04:53:24.212Z,88.25
2024-03-16T04:55:53.692Z,88.99
2024-03-16T04:58:20.738Z,88.88
2024-03-16T05:00:47.749Z,88.00
2024-03-16T05:03:14.663Z,88.61
2024-03-16T05:05:41.444Z,88.34
2024-03-16T05:08:11.007Z,88.83
2024-03-16T05:10:37.817Z,88.63
2024-03-16T05:13:04.730Z,89.38
2024-03-16T05:15:31.709Z,89.35
2024-03-16T05:17:59.235Z,88.70
2024-03-16T05:20:26.242Z,89.20
2024-03-16T05:22:53.833Z,88.40
2024-03-16T05:25:20.866Z,88.73
2024-03-16T05:27:48.125Z,88.61
2024-03-16T05:30:16.530Z,89.11
2024-03-16T05:32:44.138Z,89.15
2024-03-16T05:35:11.722Z,89.15
2024-03-16T05:37:38.790Z,88.90
2024-03-16T05:40:05.940Z,89.34
2024-03-16T05:42:38.508Z,89.24
2024-03-16T05:45:06.568Z,89.16
2024-03-16T05:47:33.362Z,89.17
2024-03-16T05:50:00.953Z,89.82
2024-03-16T05:52:27.738Z,90.03
2024-03-16T05:54:54.668Z,88.97
2024-03-16T05:57:21.926Z,88.89
2024-03-16T05:59:52.908Z,88.99
2024-03-16T06:02:20.128Z,89.11
2024-03-16T06:04:46.950Z,88.71
2024-03-16T06:07:13.751Z,88.60
2024-03-16T06:09:40.678Z,88.17
2024-03-16T06:12:07.553Z,88.89
2024-03-16T06:14:37.447Z,89.28
2024-03-16T06:17:04.300Z,88.77
2024-03-16T06:19:31.182Z,86.91
2024-03-16T06:21:58.049Z,86.56
2024-03-16T06:24:24.888Z,86.93
2024-03-16T06:27:01.697Z,87.28
2024-03-16T06:29:32.313Z,86.94
2024-03-16T06:32:06.849Z,86.90
2024-03-16T06:34:37.301Z,86.88
2024-03-16T06:37:05.351Z,86.54
2024-03-16T06:39:32.374Z,86.35
2024-03-16T06:41:59.209Z,85.66
2024-03-16T06:44:25.941Z,85.39
2024-03-16T06:46:52.917Z,85.22
2024-03-16T06:49:19.813Z,85.56
2024-03-16T06:51:46.726Z,85.00
2024-03-16T06:54:16.671Z,85.72
2024-03-16T06:56:43.499Z,85.14
2024-03-16T06:59:10.389Z,84.44
2024-03-16T07:01:37.235Z,83.91
2024-03-16T07:04:04.176Z,84.36
2024-03-16T07:06:31.164Z,83.89
2024-03-16T07:09:01.285Z,83.79
2024-03-16T07:11:28.174Z,83.96
2024-03-16T07:13:55.299Z,84.76
2024-03-16T07:16:22.587Z,84.89
2024-03-16T07:18:49.603Z,83.94
2024-03-16T07:21:17.053Z,83.84
2024-03-16T07:23:45.223Z,84.92
2024-03-16T07:26:12.158Z,85.14
2024-03-16T07:28:39.581Z,85.13
2024-03-16T07:31:06.476Z,87.39
2024-03-16T07:33:33.370Z,87.62
2024-03-16T07:36:00.201Z,86.58
2024-03-16T07:38:27.455Z,86.93
2024-03-16T07:40:54.434Z,86.32
2024-03-16T07:43:21.540Z,85.85
2024-03-16T07:45:51.891Z,85.88
2024-03-16T07:48:18.805Z,85.40
2024-03-16T07:50:45.654Z,84.91
2024-03-16T07:53:12.594Z,85.59
2024-03-16T07:55:39.655Z,85.74
2024-03-16T07:58:06.623Z,85.83
2024-03-16T08:00:33.612Z,85.87
2024-03-16T08:03:01.726Z,85.33
2024-03-16T08:05:29.556Z,84.77
2024-03-16T08:07:56.249Z,84.87
2024-03-16T08:10:23.775Z,84.25
2024-03-16T08:12:50.606Z,85.05
2024-03-16T08:15:18.917Z,88.25
2024-03-16T08:17:46.137Z,87.75
2024-03-16T08:20:16.393Z,88.38
2024-03-16T08:22:45.026Z,87.18
2024-03-16T08:25:11.967Z,88.71
2024-03-16T08:27:39.048Z,90.16
2024-03-16T08:30:06.575Z,87.52
2024-03-16T08:32:34.158Z,88.32
2024-03-16T08:35:00.999Z,86.98
2024-03-16T08:37:27.772Z,86.39
2024-03-16T08:39:54.734Z,86.33
2024-03-16T08:42:21.673Z,85.78
2024-03-16T08:44:48.661Z,85.20
2024-03-16T08:47:15.507Z,84.61
2024-03-16T08:49:42.271Z,82.59
2024-03-16T08:52:09.206Z,82.00
2024-03-16T08:54:36.712Z,81.57
2024-03-16T08:57:05.282Z,81.24
2024-03-16T08:59:32.587Z,80.78
2024-03-16T09:02:00.642Z,80.48
2024-03-16T09:04:27.713Z,80.54
2024-03-16T09:06:54.673Z,81.94
2024-03-16T09:09:22.974Z,81.39
2024-03-16T09:11:50.299Z,80.76
2024-03-16T09:14:17.179Z,81.14
2024-03-16T09:16:44.503Z,81.26
2024-03-16T09:19:12.269Z,81.08
2024-03-16T09:21:39.505Z,77.90
2024-03-16T09:24:07.824Z,78.05
2024-03-16T09:26:35.639Z,77.87
2024-03-16T09:29:02.434Z,77.55
2024-03-16T09:31:29.299Z,74.54
2024-03-16T09:33:56.245Z,75.28
2024-03-16T09:36:23.078Z,75.55
2024-03-16T09:38:50.011Z,75.46
2024-03-16T09:41:21.272Z,77.05
